Terminal Aerodrome Forecast
Issued by NWS Albuquerque, NM

Home | Current Version | Previous Version | Text Only | Print | Product List | Glossary On
Versions: 1 2 3 4 5 6 7 8 9 10 11 12 13 14 15 16 17 18
000
FTUS45 KABQ 022038 AAB
TAFABQ
TAF AMD
KABQ 022038Z 0221/0318 25008KT P6SM VCTS SCT070CB BKN100
      TEMPO 0222/0301 VRB15G27KT -TSRA BKN050CB
     FM030300 32006KT P6SM VCSH BKN060
     FM030600 VRB05KT P6SM FEW050 BKN070=

USA.gov is the U.S. government's official web portal to all federal, state and local government web resources and services.